sensor_id;sensor_type;location;lat;lon;timestamp;pressure;altitude;pressure_sealevel;temperature;humidity
20368;BME280;10343;52.402;9.796;2023-05-23T00:01:08;100721.84;;;25.54;68.36
20368;BME280;10343;52.402;9.796;2023-05-23T00:03:36;100726.19;;;25.45;67.49
20368;BME280;10343;52.402;9.796;2023-05-23T00:06:05;100724.16;;;25.58;66.75
20368;BME280;10343;52.402;9.796;2023-05-23T00:08:33;100730.97;;;25.53;66.90
20368;BME280;10343;52.402;9.796;2023-05-23T00:11:01;100727.38;;;25.52;66.16
20368;BME280;10343;52.402;9.796;2023-05-23T00:13:29;100723.78;;;25.19;68.38
20368;BME280;10343;52.402;9.796;2023-05-23T00:15:59;100723.19;;;25.48;67.15
20368;BME280;10343;52.402;9.796;2023-05-23T00:18:29;100723.22;;;25.16;67.40
20368;BME280;10343;52.402;9.796;2023-05-23T00:20:57;100734.66;;;25.19;67.83
20368;BME280;10343;52.402;9.796;2023-05-23T00:23:25;100719.25;;;24.76;69.10
20368;BME280;10343;52.402;9.796;2023-05-23T00:25:55;100724.63;;;24.99;68.12
20368;BME280;10343;52.402;9.796;2023-05-23T00:28:24;100733.97;;;25.06;67.98
20368;BME280;10343;52.402;9.796;2023-05-23T00:30:52;100727.66;;;24.73;70.46
20368;BME280;10343;52.402;9.796;2023-05-23T00:33:20;100720.00;;;24.78;69.24
20368;BME280;10343;52.402;9.796;2023-05-23T00:35:50;100726.41;;;24.54;71.03
20368;BME280;10343;52.402;9.796;2023-05-23T00:38:18;100725.22;;;24.36;71.80
20368;BME280;10343;52.402;9.796;2023-05-23T00:40:46;100726.19;;;25.13;68.04
20368;BME280;10343;52.402;9.796;2023-05-23T00:43:15;100728.03;;;24.34;72.08
20368;BME280;10343;52.402;9.796;2023-05-23T00:45:42;100724.69;;;24.42;71.07
20368;BME280;10343;52.402;9.796;2023-05-23T00:48:11;100730.13;;;24.42;72.19
20368;BME280;10343;52.402;9.796;2023-05-23T00:50:39;100728.91;;;24.69;69.70
20368;BME280;10343;52.402;9.796;2023-05-23T00:53:09;100719.03;;;24.68;69.80
20368;BME280;10343;52.402;9.796;2023-05-23T00:55:37;100727.06;;;24.24;72.22
20368;BME280;10343;52.402;9.796;2023-05-23T00:58:06;100731.53;;;23.78;74.29
20368;BME280;10343;52.402;9.796;2023-05-23T01:00:34;100714.63;;;24.10;71.41
20368;BME280;10343;52.402;9.796;2023-05-23T01:03:04;100720.88;;;23.52;74.52
20368;BME280;10343;52.402;9.796;2023-05-23T01:05:32;100723.25;;;23.21;76.60
20368;BME280;10343;52.402;9.796;2023-05-23T01:07:59;100726.09;;;23.55;72.67
20368;BME280;10343;52.402;9.796;2023-05-23T01:10:30;100722.91;;;23.73;71.51
20368;BME280;10343;52.402;9.796;2023-05-23T01:13:08;100732.09;;;23.23;73.86
20368;BME280;10343;52.402;9.796;2023-05-23T01:15:41;100748.34;;;22.49;77.20
20368;BME280;10343;52.402;9.796;2023-05-23T01:18:15;100744.91;;;23.08;73.82
20368;BME280;10343;52.402;9.796;2023-05-23T01:20:48;100746.63;;;23.10;72.30
20368;BME280;10343;52.402;9.796;2023-05-23T01:23:47;100740.78;;;22.54;74.39
20368;BME280;10343;52.402;9.796;2023-05-23T01:26:31;100736.91;;;22.33;75.18
20368;BME280;10343;52.402;9.796;2023-05-23T01:29:03;100751.22;;;22.72;72.30
20368;BME280;10343;52.402;9.796;2023-05-23T01:31:36;100747.63;;;22.84;71.32
20368;BME280;10343;52.402;9.796;2023-05-23T01:34:08;100752.00;;;22.61;72.25
20368;BME280;10343;52.402;9.796;2023-05-23T01:36:39;100747.13;;;22.90;70.06
20368;BME280;10343;52.402;9.796;2023-05-23T01:39:07;100743.47;;;22.92;68.76
20368;BME280;10343;52.402;9.796;2023-05-23T01:41:35;100750.94;;;22.25;71.95
20368;BME280;10343;52.402;9.796;2023-05-23T01:44:05;100748.66;;;22.58;70.46
20368;BME280;10343;52.402;9.796;2023-05-23T01:46:34;100753.97;;;22.46;71.31
20368;BME280;10343;52.402;9.796;2023-05-23T01:49:07;100764.78;;;22.20;71.25
20368;BME280;10343;52.402;9.796;2023-05-23T01:51:36;100769.47;;;22.81;68.52
20368;BME280;10343;52.402;9.796;2023-05-23T01:54:05;100768.03;;;22.38;70.27
20368;BME280;10343;52.402;9.796;2023-05-23T01:56:33;100776.22;;;22.24;71.30
20368;BME280;10343;52.402;9.796;2023-05-23T01:59:02;100770.59;;;22.14;71.72
20368;BME280;10343;52.402;9.796;2023-05-23T02:01:32;100767.91;;;22.27;69.20
20368;BME280;10343;52.402;9.796;2023-05-23T02:04:01;100766.41;;;22.49;68.13
20368;BME280;10343;52.402;9.796;2023-05-23T02:06:29;100775.78;;;22.69;67.67
20368;BME280;10343;52.402;9.796;2023-05-23T02:08:58;100774.19;;;21.49;73.79
20368;BME280;10343;52.402;9.796;2023-05-23T02:11:26;100768.03;;;22.13;69.44
20368;BME280;10343;52.402;9.796;2023-05-23T02:13:54;100778.19;;;22.35;68.83
20368;BME280;10343;52.402;9.796;2023-05-23T02:16:22;100787.09;;;22.74;66.52
20368;BME280;10343;52.402;9.796;2023-05-23T02:18:53;100780.00;;;22.47;67.22
20368;BME280;10343;52.402;9.796;2023-05-23T02:21:22;100781.97;;;22.95;64.51
20368;BME280;10343;52.402;9.796;2023-05-23T02:23:50;100774.28;;;22.26;66.99
20368;BME280;10343;52.402;9.796;2023-05-23T02:26:17;100770.97;;;21.57;72.55
20368;BME280;10343;52.402;9.796;2023-05-23T02:28:46;100776.13;;;22.13;66.68
20368;BME280;10343;52.402;9.796;2023-05-23T02:31:14;100778.81;;;22.13;66.96
20368;BME280;10343;52.402;9.796;2023-05-23T02:33:43;100783.44;;;22.11;67.37
20368;BME280;10343;52.402;9.796;2023-05-23T02:36:12;100785.88;;;22.78;63.80
20368;BME280;10343;52.402;9.796;2023-05-23T02:38:40;100791.69;;;22.35;67.13
20368;BME280;10343;52.402;9.796;2023-05-23T02:41:08;100789.16;;;22.70;63.43
20368;BME280;10343;52.402;9.796;2023-05-23T02:43:36;100792.84;;;22.31;64.18
20368;BME280;10343;52.402;9.796;2023-05-23T02:46:04;100791.09;;;21.65;67.26
20368;BME280;10343;52.402;9.796;2023-05-23T02:48:32;100796.63;;;22.28;64.88
20368;BME280;10343;52.402;9.796;2023-05-23T02:51:01;100792.63;;;21.82;65.82
20368;BME280;10343;52.402;9.796;2023-05-23T02:53:30;100795.88;;;22.13;64.69
20368;BME280;10343;52.402;9.796;2023-05-23T02:55:58;100788.22;;;22.20;63.61
20368;BME280;10343;52.402;9.796;2023-05-23T02:58:26;100791.34;;;22.27;63.30
20368;BME280;10343;52.402;9.796;2023-05-23T03:00:54;100788.00;;;22.23;63.30
20368;BME280;10343;52.402;9.796;2023-05-23T03:03:22;100791.56;;;22.49;62.65
20368;BME280;10343;52.402;9.796;2023-05-23T03:05:50;100791.13;;;22.30;62.98
20368;BME280;10343;52.402;9.796;2023-05-23T03:08:18;100797.81;;;21.85;66.44
20368;BME280;10343;52.402;9.796;2023-05-23T03:10:47;100794.59;;;22.06;65.28
20368;BME280;10343;52.402;9.796;2023-05-23T03:13:15;100795.03;;;22.13;64.17
20368;BME280;10343;52.402;9.796;2023-05-23T03:15:44;100787.56;;;22.03;65.26
20368;BME280;10343;52.402;9.796;2023-05-23T03:18:12;100787.84;;;21.73;65.90
20368;BME280;10343;52.402;9.796;2023-05-23T03:20:40;100791.13;;;22.30;63.97
20368;BME280;10343;52.402;9.796;2023-05-23T03:23:07;100787.03;;;22.11;65.00
20368;BME280;10343;52.402;9.796;2023-05-23T03:25:35;100791.47;;;22.25;64.99
20368;BME280;10343;52.402;9.796;2023-05-23T03:28:05;100785.38;;;22.73;61.75
20368;BME280;10343;52.402;9.796;2023-05-23T03:30:33;100785.69;;;22.81;61.97
20368;BME280;10343;52.402;9.796;2023-05-23T03:33:01;100778.81;;;22.51;62.87
20368;BME280;10343;52.402;9.796;2023-05-23T03:35:29;100781.94;;;21.94;65.28
20368;BME280;10343;52.402;9.796;2023-05-23T03:37:57;100780.75;;;21.85;66.73
20368;BME280;10343;52.402;9.796;2023-05-23T03:40:24;100781.63;;;22.11;65.36
20368;BME280;10343;52.402;9.796;2023-05-23T03:43:00;100770.38;;;22.17;63.93
20368;BME280;10343;52.402;9.796;2023-05-23T03:45:30;100773.31;;;22.14;64.35
20368;BME280;10343;52.402;9.796;2023-05-23T03:48:00;100782.81;;;22.07;66.50
20368;BME280;10343;52.402;9.796;2023-05-23T03:50:29;100777.19;;;22.10;66.07
20368;BME280;10343;52.402;9.796;2023-05-23T03:52:57;100768.13;;;21.45;69.51
20368;BME280;10343;52.402;9.796;2023-05-23T03:55:25;100777.75;;;21.49;68.85
20368;BME280;10343;52.402;9.796;2023-05-23T03:57:53;100776.19;;;22.63;65.57
20368;BME280;10343;52.402;9.796;2023-05-23T04:00:21;100776.84;;;22.53;64.66
20368;BME280;10343;52.402;9.796;2023-05-23T04:02:51;100777.28;;;21.83;66.71
20368;BME280;10343;52.402;9.796;2023-05-23T04:05:22;100775.34;;;22.49;63.50
20368;BME280;10343;52.402;9.796;2023-05-23T04:07:50;100771.16;;;22.95;60.73
20368;BME280;10343;52.402;9.796;2023-05-23T04:10:19;100776.19;;;22.63;62.07
20368;BME280;10343;52.402;9.796;2023-05-23T04:12:47;100781.59;;;22.63;62.40
20368;BME280;10343;52.402;9.796;2023-05-23T04:15:16;100787.31;;;23.08;60.41
20368;BME280;10343;52.402;9.796;2023-05-23T04:18:08;100790.47;;;22.65;61.20
20368;BME280;10343;52.402;9.796;2023-05-23T04:20:36;100790.13;;;22.69;60.77
20368;BME280;10343;52.402;9.796;2023-05-23T04:23:04;100788.59;;;23.15;59.64
20368;BME280;10343;52.402;9.796;2023-05-23T04:25:35;100792.25;;;22.40;60.76
20368;BME280;10343;52.402;9.796;2023-05-23T04:28:11;100792.41;;;22.76;61.16
20368;BME280;10343;52.402;9.796;2023-05-23T04:30:40;100789.47;;;22.66;60.27
20368;BME280;10343;52.402;9.796;2023-05-23T04:33:09;100786.00;;;22.77;60.16
20368;BME280;10343;52.402;9.796;2023-05-23T04:35:39;100803.34;;;22.10;62.45
20368;BME280;10343;52.402;9.796;2023-05-23T04:38:07;100791.84;;;21.40;64.87
20368;BME280;10343;52.402;9.796;2023-05-23T04:40:36;100791.47;;;22.51;62.12
20368;BME280;10343;52.402;9.796;2023-05-23T04:43:32;100792.34;;;22.38;62.24
20368;BME280;10343;52.402;9.796;2023-05-23T04:46:14;100787.97;;;22.99;59.29
20368;BME280;10343;52.402;9.796;2023-05-23T04:48:44;100799.69;;;22.86;60.18
20368;BME280;10343;52.402;9.796;2023-05-23T04:51:14;100792.25;;;22.40;61.21
20368;BME280;10343;52.402;9.796;2023-05-23T04:53:50;100788.28;;;21.80;63.77
20368;BME280;10343;52.402;9.796;2023-05-23T04:56:18;100796.09;;;22.10;63.03
20368;BME280;10343;52.402;9.796;2023-05-23T04:58:48;100795.44;;;22.45;63.13
20368;BME280;10343;52.402;9.796;2023-05-23T05:01:16;100798.03;;;22.60;62.07
20368;BME280;10343;52.402;9.796;2023-05-23T05:03:45;100795.66;;;22.29;63.41
20368;BME280;10343;52.402;9.796;2023-05-23T05:06:13;100796.53;;;22.55;62.47
20368;BME280;10343;52.402;9.796;2023-05-23T05:08:42;100789.31;;;22.43;63.78
20368;BME280;10343;52.402;9.796;2023-05-23T05:11:11;100791.97;;;22.17;64.68
20368;BME280;10343;52.402;9.796;2023-05-23T05:13:40;100785.19;;;21.99;65.59
20368;BME280;10343;52.402;9.796;2023-05-23T05:16:08;100790.78;;;21.83;68.50
20368;BME280;10343;52.402;9.796;2023-05-23T05:18:37;100796.13;;;22.36;64.80
20368;BME280;10343;52.402;9.796;2023-05-23T05:21:07;100801.50;;;22.10;64.94
20368;BME280;10343;52.402;9.796;2023-05-23T05:23:36;100799.19;;;21.38;68.50
20368;BME280;10343;52.402;9.796;2023-05-23T05:26:07;100800.53;;;21.58;69.09
20368;BME280;10343;52.402;9.796;2023-05-23T05:28:34;100796.28;;;21.94;68.12
20368;BME280;10343;52.402;9.796;2023-05-23T05:31:04;100797.19;;;21.95;68.10
20368;BME280;10343;52.402;9.796;2023-05-23T05:33:34;100798.91;;;22.09;67.11
20368;BME280;10343;52.402;9.796;2023-05-23T05:36:10;100798.03;;;21.82;69.08
20368;BME280;10343;52.402;9.796;2023-05-23T05:38:39;100802.31;;;21.72;69.87
20368;BME280;10343;52.402;9.796;2023-05-23T05:41:07;100793.34;;;21.44;72.55
20368;BME280;10343;52.402;9.796;2023-05-23T05:43:39;100799.88;;;21.00;73.47
20368;BME280;10343;52.402;9.796;2023-05-23T05:46:07;100805.56;;;21.23;73.31
20368;BME280;10343;52.402;9.796;2023-05-23T05:48:36;100794.09;;;21.61;70.31
20368;BME280;10343;52.402;9.796;2023-05-23T05:51:07;100800.03;;;21.53;71.75
20368;BME280;10343;52.402;9.796;2023-05-23T05:53:36;100797.72;;;22.00;69.36
20368;BME280;10343;52.402;9.796;2023-05-23T05:56:04;100804.19;;;21.97;70.44
20368;BME280;10343;52.402;9.796;2023-05-23T05:58:35;100801.00;;;21.65;73.06
20368;BME280;10343;52.402;9.796;2023-05-23T06:01:06;100802.75;;;21.66;71.14
20368;BME280;10343;52.402;9.796;2023-05-23T06:03:35;100811.50;;;21.82;70.63
20368;BME280;10343;52.402;9.796;2023-05-23T06:06:03;100801.88;;;21.65;71.83
20368;BME280;10343;52.402;9.796;2023-05-23T06:08:31;100806.00;;;21.71;72.12
20368;BME280;10343;52.402;9.796;2023-05-23T06:11:01;100810.69;;;20.57;78.58
20368;BME280;10343;52.402;9.796;2023-05-23T06:13:29;100810.84;;;21.51;74.94
20368;BME280;10343;52.402;9.796;2023-05-23T06:15:57;100802.53;;;21.82;71.23
20368;BME280;10343;52.402;9.796;2023-05-23T06:18:25;100797.72;;;22.00;70.90
20368;BME280;10343;52.402;9.796;2023-05-23T06:20:53;100808.13;;;21.66;73.80
20368;BME280;10343;52.402;9.796;2023-05-23T06:23:21;100807.09;;;21.94;71.61
20368;BME280;10343;52.402;9.796;2023-05-23T06:25:49;100801.16;;;21.89;70.68
20368;BME280;10343;52.402;9.796;2023-05-23T06:28:18;100805.50;;;22.04;70.59
20368;BME280;10343;52.402;9.796;2023-05-23T06:30:46;100804.41;;;21.54;74.74
20368;BME280;10343;52.402;9.796;2023-05-23T06:33:14;100808.81;;;21.82;69.84
20368;BME280;10343;52.402;9.796;2023-05-23T06:35:42;100816.16;;;20.84;77.50
20368;BME280;10343;52.402;9.796;2023-05-23T06:38:10;100822.31;;;20.86;79.46
20368;BME280;10343;52.402;9.796;2023-05-23T06:40:38;100821.16;;;21.32;76.42
20368;BME280;10343;52.402;9.796;2023-05-23T06:43:08;100818.16;;;21.09;77.69
20368;BME280;10343;52.402;9.796;2023-05-23T06:45:46;100828.19;;;20.64;80.39
20368;BME280;10343;52.402;9.796;2023-05-23T06:48:14;100825.41;;;19.92;84.22
20368;BME280;10343;52.402;9.796;2023-05-23T06:50:43;100829.66;;;19.96;86.11
20368;BME280;10343;52.402;9.796;2023-05-23T06:53:12;100832.25;;;20.71;78.11
20368;BME280;10343;52.402;9.796;2023-05-23T06:55:48;100836.84;;;20.40;79.83
20368;BME280;10343;52.402;9.796;2023-05-23T06:58:21;100835.31;;;20.36;84.27
20368;BME280;10343;52.402;9.796;2023-05-23T07:00:55;100838.41;;;20.73;80.82
20368;BME280;10343;52.402;9.796;2023-05-23T07:03:45;100844.56;;;20.61;80.91
20368;BME280;10343;52.402;9.796;2023-05-23T07:06:13;100838.59;;;20.84;79.07
20368;BME280;10343;52.402;9.796;2023-05-23T07:08:41;100840.50;;;20.82;77.25
20368;BME280;10343;52.402;9.796;2023-05-23T07:11:09;100852.31;;;20.36;82.41
20368;BME280;10343;52.402;9.796;2023-05-23T07:13:41;100841.44;;;21.10;77.41
20368;BME280;10343;52.402;9.796;2023-05-23T07:16:17;100843.38;;;20.36;82.07
20368;BME280;10343;52.402;9.796;2023-05-23T07:19:00;100853.97;;;20.82;80.80
20368;BME280;10343;52.402;9.796;2023-05-23T07:21:29;100847.66;;;20.69;79.55
20368;BME280;10343;52.402;9.796;2023-05-23T07:23:58;100849.06;;;20.46;80.81
20368;BME280;10343;52.402;9.796;2023-05-23T07:26:27;100843.50;;;20.04;81.44
20368;BME280;10343;52.402;9.796;2023-05-23T07:28:55;100854.91;;;19.63;88.51
20368;BME280;10343;52.402;9.796;2023-05-23T07:31:26;100861.84;;;20.28;82.63
20368;BME280;10343;52.402;9.796;2023-05-23T07:33:57;100857.81;;;20.35;79.29
20368;BME280;10343;52.402;9.796;2023-05-23T07:36:31;100887.81;;;19.98;81.11
20368;BME280;10343;52.402;9.796;2023-05-23T07:39:02;100878.09;;;20.26;80.52
20368;BME280;10343;52.402;9.796;2023-05-23T07:41:30;100875.72;;;20.65;78.57
20368;BME280;10343;52.402;9.796;2023-05-23T07:43:58;100882.13;;;20.48;77.74
20368;BME280;10343;52.402;9.796;2023-05-23T07:46:27;100887.63;;;20.01;79.45
20368;BME280;10343;52.402;9.796;2023-05-23T07:48:55;100878.59;;;19.08;86.89
20368;BME280;10343;52.402;9.796;2023-05-23T07:51:24;100886.81;;;19.69;85.33
20368;BME280;10343;52.402;9.796;2023-05-23T07:53:52;100895.16;;;19.32;86.33
20368;BME280;10343;52.402;9.796;2023-05-23T07:56:21;100891.69;;;20.82;81.05
20368;BME280;10343;52.402;9.796;2023-05-23T07:58:49;100889.09;;;19.29;88.41
20368;BME280;10343;52.402;9.796;2023-05-23T08:01:17;100889.41;;;19.87;85.08
20368;BME280;10343;52.402;9.796;2023-05-23T08:04:03;100881.47;;;19.37;89.57
20368;BME280;10343;52.402;9.796;2023-05-23T08:06:44;100903.63;;;21.91;70.74
20368;BME280;10343;52.402;9.796;2023-05-23T08:09:39;100911.50;;;22.34;67.19
20368;BME280;10343;52.402;9.796;2023-05-23T08:12:10;100921.00;;;22.39;66.05
20368;BME280;10343;52.402;9.796;2023-05-23T08:14:38;100917.13;;;20.93;72.28
20368;BME280;10343;52.402;9.796;2023-05-23T08:17:39;100927.00;;;20.92;71.10
20368;BME280;10343;52.402;9.796;2023-05-23T08:20:10;100922.22;;;19.93;80.33
20368;BME280;10343;52.402;9.796;2023-05-23T08:22:38;100918.75;;;21.93;69.99
20368;BME280;10343;52.402;9.796;2023-05-23T08:25:08;100926.97;;;21.77;68.39
20368;BME280;10343;52.402;9.796;2023-05-23T08:27:38;100926.09;;;21.35;67.81
20368;BME280;10343;52.402;9.796;2023-05-23T08:30:21;100936.59;;;21.40;68.50
20368;BME280;10343;52.402;9.796;2023-05-23T08:32:51;100936.19;;;21.46;70.25
20368;BME280;10343;52.402;9.796;2023-05-23T08:35:21;100939.41;;;21.24;71.63
20368;BME280;10343;52.402;9.796;2023-05-23T08:37:50;100937.56;;;21.80;69.01
20368;BME280;10343;52.402;9.796;2023-05-23T08:40:20;100937.13;;;21.03;70.10
20368;BME280;10343;52.402;9.796;2023-05-23T08:43:01;100943.50;;;21.73;68.86
20368;BME280;10343;52.402;9.796;2023-05-23T08:45:29;100952.09;;;21.50;67.59
20368;BME280;10343;52.402;9.796;2023-05-23T08:47:59;100958.50;;;21.77;65.91
20368;BME280;10343;52.402;9.796;2023-05-23T08:50:34;100955.75;;;21.64;66.76
20368;BME280;10343;52.402;9.796;2023-05-23T08:53:04;100966.94;;;21.58;66.34
20368;BME280;10343;52.402;9.796;2023-05-23T08:55:36;100980.19;;;20.60;69.51
20368;BME280;10343;52.402;9.796;2023-05-23T08:58:05;100973.81;;;20.91;69.46
20368;BME280;10343;52.402;9.796;2023-05-23T09:00:50;100978.56;;;20.72;70.76
20368;BME280;10343;52.402;9.796;2023-05-23T09:03:20;100992.84;;;20.43;69.87
20368;BME280;10343;52.402;9.796;2023-05-23T09:06:06;100991.78;;;20.15;72.60
20368;BME280;10343;52.402;9.796;2023-05-23T09:08:36;100995.47;;;20.29;71.84
20368;BME280;10343;52.402;9.796;2023-05-23T09:11:05;101007.78;;;19.87;71.01
20368;BME280;10343;52.402;9.796;2023-05-23T09:13:36;101008.19;;;21.02;68.75
20368;BME280;10343;52.402;9.796;2023-05-23T09:16:09;101018.84;;;20.59;67.91
20368;BME280;10343;52.402;9.796;2023-05-23T09:18:45;101023.78;;;20.36;71.03
20368;BME280;10343;52.402;9.796;2023-05-23T09:21:16;101032.06;;;20.01;72.50
20368;BME280;10343;52.402;9.796;2023-05-23T09:24:05;101038.28;;;20.94;67.67
20368;BME280;10343;52.402;9.796;2023-05-23T09:26:33;101039.38;;;19.99;68.74
20368;BME280;10343;52.402;9.796;2023-05-23T09:29:04;101040.03;;;20.18;70.60
20368;BME280;10343;52.402;9.796;2023-05-23T09:31:32;101043.47;;;20.97;66.99
20368;BME280;10343;52.402;9.796;2023-05-23T09:34:01;101041.09;;;21.36;64.95
20368;BME280;10343;52.402;9.796;2023-05-23T09:36:32;101045.63;;;20.15;68.50
20368;BME280;10343;52.402;9.796;2023-05-23T09:39:02;101053.03;;;21.03;64.01
20368;BME280;10343;52.402;9.796;2023-05-23T09:41:32;101055.69;;;20.89;66.96
20368;BME280;10343;52.402;9.796;2023-05-23T09:44:05;101046.25;;;20.81;66.95
20368;BME280;10343;52.402;9.796;2023-05-23T09:46:34;101058.66;;;20.84;64.85
20368;BME280;10343;52.402;9.796;2023-05-23T09:49:13;101073.09;;;19.39;69.08
20368;BME280;10343;52.402;9.796;2023-05-23T09:51:56;101072.63;;;20.91;63.91
20368;BME280;10343;52.402;9.796;2023-05-23T09:54:24;101082.72;;;21.17;60.57
20368;BME280;10343;52.402;9.796;2023-05-23T09:56:52;101080.13;;;19.75;66.51
20368;BME280;10343;52.402;9.796;2023-05-23T09:59:23;101083.25;;;19.67;68.51
20368;BME280;10343;52.402;9.796;2023-05-23T10:01:55;101097.88;;;19.28;67.93
20368;BME280;10343;52.402;9.796;2023-05-23T10:04:24;101091.97;;;20.20;67.79
20368;BME280;10343;52.402;9.796;2023-05-23T10:06:57;101088.13;;;21.75;60.38
20368;BME280;10343;52.402;9.796;2023-05-23T10:09:32;101101.69;;;20.39;65.79
20368;BME280;10343;52.402;9.796;2023-05-23T10:12:38;101107.84;;;20.09;64.96
20368;BME280;10343;52.402;9.796;2023-05-23T10:15:11;101102.47;;;19.60;66.52
20368;BME280;10343;52.402;9.796;2023-05-23T10:17:50;101104.44;;;20.53;63.32
20368;BME280;10343;52.402;9.796;2023-05-23T10:20:21;101105.59;;;20.80;61.35
20368;BME280;10343;52.402;9.796;2023-05-23T10:22:53;101120.69;;;20.04;63.83
20368;BME280;10343;52.402;9.796;2023-05-23T10:25:21;101115.25;;;20.22;63.51
20368;BME280;10343;52.402;9.796;2023-05-23T10:27:54;101115.31;;;20.98;59.50
20368;BME280;10343;52.402;9.796;2023-05-23T10:30:25;101122.34;;;20.70;61.63
20368;BME280;10343;52.402;9.796;2023-05-23T10:32:54;101128.75;;;18.67;70.78
20368;BME280;10343;52.402;9.796;2023-05-23T10:35:31;101121.53;;;19.73;65.52
20368;BME280;10343;52.402;9.796;2023-05-23T10:38:11;101132.75;;;19.81;65.08
20368;BME280;10343;52.402;9.796;2023-05-23T10:40:49;101134.19;;;20.36;62.24
20368;BME280;10343;52.402;9.796;2023-05-23T10:43:25;101150.41;;;18.81;66.99
20368;BME280;10343;52.402;9.796;2023-05-23T10:45:56;101147.88;;;19.99;64.47
20368;BME280;10343;52.402;9.796;2023-05-23T10:48:31;101154.91;;;20.02;62.41
20368;BME280;10343;52.402;9.796;2023-05-23T10:51:02;101151.34;;;20.49;60.50
20368;BME280;10343;52.402;9.796;2023-05-23T10:53:34;101160.47;;;21.09;58.76
20368;BME280;10343;52.402;9.796;2023-05-23T10:56:04;101158.69;;;21.24;58.53
20368;BME280;10343;52.402;9.796;2023-05-23T10:58:34;101166.81;;;19.98;61.61
20368;BME280;10343;52.402;9.796;2023-05-23T11:01:05;101170.44;;;19.46;65.03
20368;BME280;10343;52.402;9.796;2023-05-23T11:03:34;101175.59;;;19.15;67.04
20368;BME280;10343;52.402;9.796;2023-05-23T11:06:04;101172.16;;;18.02;71.25
20368;BME280;10343;52.402;9.796;2023-05-23T11:08:40;101177.59;;;19.80;64.06
20368;BME280;10343;52.402;9.796;2023-05-23T11:11:14;101175.72;;;19.65;61.98
20368;BME280;10343;52.402;9.796;2023-05-23T11:13:55;101185.94;;;20.25;60.66
20368;BME280;10343;52.402;9.796;2023-05-23T11:16:27;101185.19;;;19.72;60.64
20368;BME280;10343;52.402;9.796;2023-05-23T11:19:20;101190.94;;;19.13;62.52
20368;BME280;10343;52.402;9.796;2023-05-23T11:21:56;101197.38;;;20.29;60.52
20368;BME280;10343;52.402;9.796;2023-05-23T11:24:48;101189.22;;;19.12;60.51
20368;BME280;10343;52.402;9.796;2023-05-23T11:27:17;101202.50;;;19.50;59.71
20368;BME280;10343;52.402;9.796;2023-05-23T11:30:00;101213.69;;;18.12;65.11
20368;BME280;10343;52.402;9.796;2023-05-23T11:32:29;101202.16;;;19.04;61.60
20368;BME280;10343;52.402;9.796;2023-05-23T11:34:58;101199.19;;;19.79;58.87
20368;BME280;10343;52.402;9.796;2023-05-23T11:37:27;101212.63;;;21.24;53.78
20368;BME280;10343;52.402;9.796;2023-05-23T11:39:57;101212.34;;;20.34;55.15
20368;BME280;10343;52.402;9.796;2023-05-23T11:42:25;101217.66;;;20.84;53.74
20368;BME280;10343;52.402;9.796;2023-05-23T11:44:53;101215.66;;;21.48;51.17
20368;BME280;10343;52.402;9.796;2023-05-23T11:47:21;101212.84;;;21.80;50.17
20368;BME280;10343;52.402;9.796;2023-05-23T11:49:49;101208.94;;;21.25;50.12
20368;BME280;10343;52.402;9.796;2023-05-23T11:52:17;101227.56;;;20.51;53.11
20368;BME280;10343;52.402;9.796;2023-05-23T11:54:45;101230.88;;;18.84;57.28
20368;BME280;10343;52.402;9.796;2023-05-23T11:57:14;101228.41;;;19.87;56.39
20368;BME280;10343;52.402;9.796;2023-05-23T11:59:43;101218.56;;;20.03;54.39
20368;BME280;10343;52.402;9.796;2023-05-23T12:02:11;101223.75;;;21.48;49.92
20368;BME280;10343;52.402;9.796;2023-05-23T12:04:39;101240.75;;;19.56;53.81
20368;BME280;10343;52.402;9.796;2023-05-23T12:07:07;101224.16;;;20.48;52.23
20368;BME280;10343;52.402;9.796;2023-05-23T12:09:42;101227.22;;;20.08;52.64
20368;BME280;10343;52.402;9.796;2023-05-23T12:12:11;101222.38;;;21.71;46.06
20368;BME280;10343;52.402;9.796;2023-05-23T12:14:41;101215.22;;;21.70;46.45
20368;BME280;10343;52.402;9.796;2023-05-23T12:17:10;101228.38;;;20.85;47.17
20368;BME280;10343;52.402;9.796;2023-05-23T12:19:44;101244.50;;;20.38;48.58
20368;BME280;10343;52.402;9.796;2023-05-23T12:22:12;101215.38;;;21.23;47.05
20368;BME280;10343;52.402;9.796;2023-05-23T12:24:44;101224.94;;;20.18;49.18
20368;BME280;10343;52.402;9.796;2023-05-23T12:27:13;101239.94;;;19.01;50.63
20368;BME280;10343;52.402;9.796;2023-05-23T12:29:49;101236.16;;;21.81;45.78
20368;BME280;10343;52.402;9.796;2023-05-23T12:32:18;101246.38;;;21.15;47.08
20368;BME280;10343;52.402;9.796;2023-05-23T12:34:48;101251.44;;;21.36;45.38
20368;BME280;10343;52.402;9.796;2023-05-23T12:37:16;101235.97;;;21.70;45.37
20368;BME280;10343;52.402;9.796;2023-05-23T12:39:46;101234.56;;;19.89;47.54
20368;BME280;10343;52.402;9.796;2023-05-23T12:42:14;101240.31;;;20.32;47.11
20368;BME280;10343;52.402;9.796;2023-05-23T12:44:43;101245.81;;;20.78;45.62
20368;BME280;10343;52.402;9.796;2023-05-23T12:47:12;101253.91;;;21.85;42.16
20368;BME280;10343;52.402;9.796;2023-05-23T12:49:41;101249.16;;;21.44;41.86
20368;BME280;10343;52.402;9.796;2023-05-23T12:52:10;101246.88;;;20.10;46.02
20368;BME280;10343;52.402;9.796;2023-05-23T12:54:38;101237.25;;;20.38;44.35
20368;BME280;10343;52.402;9.796;2023-05-23T12:57:06;101247.84;;;19.92;44.95
20368;BME280;10343;52.402;9.796;2023-05-23T12:59:34;101239.53;;;21.40;43.36
20368;BME280;10343;52.402;9.796;2023-05-23T13:02:03;101239.09;;;22.36;39.85
20368;BME280;10343;52.402;9.796;2023-05-23T13:04:31;101227.31;;;23.06;39.66
20368;BME280;10343;52.402;9.796;2023-05-23T13:06:59;101237.53;;;22.32;39.59
20368;BME280;10343;52.402;9.796;2023-05-23T13:09:27;101233.22;;;21.55;41.29